Estación de Casablanca

Ultimos registro cada 15 minutos 68
Estación Fecha / Hora Temperatura Humedad Lluvia Velocidad Dirección Radiación Presion
68 Casablanca 17-08-2026 16:45 14,1 79,4 0 0,5 254 111,9 987,9
67 Casablanca 17-08-2026 16:30 14,2 79,5 0 1 264 123,1 987,6
66 Casablanca 17-08-2026 16:15 14,4 78,1 0 1 256 69,4 987,8
65 Casablanca 17-08-2026 16:00 16,9 73,6 0 0 253 35,6 987,3
64 Casablanca 17-08-2026 15:45 17,6 67,4 0 0 295 204,4 987,4
63 Casablanca 17-08-2026 15:30 17,1 71,1 0 0 168 278,1 987,4
62 Casablanca 17-08-2026 15:15 16,3 73,1 0 0 213 171,9 987,3
61 Casablanca 17-08-2026 15:00 16,3 73,7 0 0 24 333,1 987,1
60 Casablanca 17-08-2026 14:45 16,5 74,8 0 0,5 110 384,4 987,4
59 Casablanca 17-08-2026 14:30 16 75,7 0 1 95 533,1 987,2
58 Casablanca 17-08-2026 14:15 15,5 79 0 0,5 112 559,4 987,3
57 Casablanca 17-08-2026 14:00 14,8 77,4 0 1 111 578,1 987,2
56 Casablanca 17-08-2026 13:45 15,5 79 0 0 66 591,9 987,4
55 Casablanca 17-08-2026 13:30 15,6 76,3 0 0,5 39 619,4 987,5
54 Casablanca 17-08-2026 13:15 14 80,8 0 1,5 79 643,1 987,5
53 Casablanca 17-08-2026 13:00 13,8 82 0 2 67 538,1 987,6
52 Casablanca 17-08-2026 12:45 13,4 81,8 0 1,5 76 529,4 987,4
51 Casablanca 17-08-2026 12:30 14,1 79,4 0 0,5 37 581,9 987,2
50 Casablanca 17-08-2026 12:15 13,4 83,1 0 0 14 691,9 987,2
49 Casablanca 17-08-2026 12:00 12,3 86 0 0 350 259,4 987,2
48 Casablanca 17-08-2026 11:45 12,1 82,4 0 0 333 218,1 987,3
47 Casablanca 17-08-2026 11:30 11,7 85,5 0 0 312 245,6 987,4
46 Casablanca 17-08-2026 11:15 10,8 85,5 0 0 298 245,6 987,2
45 Casablanca 17-08-2026 11:00 10,6 85,9 0 0 298 224,4 987,2
44 Casablanca 17-08-2026 10:45 10,1 87,9 0 0 296 213,1 987,2
43 Casablanca 17-08-2026 10:30 9,5 90,1 0 0 293 148,1 987,3
42 Casablanca 17-08-2026 10:15 9 89,6 0 0 293 101,9 987,1
41 Casablanca 17-08-2026 10:00 8,7 90,3 0 0 270 71,9 987
40 Casablanca 17-08-2026 09:45 9 89,6 0 0 234 126,9 986,7
39 Casablanca 17-08-2026 09:30 8,5 93 0 0 234 173,1 986,7
38 Casablanca 17-08-2026 09:15 8,1 94,4 0 0 234 68,1 986,9
37 Casablanca 17-08-2026 09:00 7,9 95,5 0 0 234 41,9 986,7
36 Casablanca 17-08-2026 08:45 7,7 96 0 0 234 30,6 986,6
35 Casablanca 17-08-2026 08:30 7,7 97 0 0 232 18,1 986,6
34 Casablanca 17-08-2026 08:15 7,7 97,2 0 0 143 9,4 986,4
33 Casablanca 17-08-2026 08:00 7,8 97,7 0 0 142 15,6 985,9
32 Casablanca 17-08-2026 07:45 7,7 97,8 0 0 142 15,6 985,8
31 Casablanca 17-08-2026 07:30 7,6 97,4 0,2 0 131 1,9 985,8
30 Casablanca 17-08-2026 07:15 7,6 97 0 0 126 0,6 985,7
29 Casablanca 17-08-2026 07:00 7,6 96,6 0 0 122 0,6 985,4
28 Casablanca 17-08-2026 06:45 7,6 96,1 0 0 121 0,6 985,4
27 Casablanca 17-08-2026 06:30 7,7 95,5 0 0 135 0,6 985,3
26 Casablanca 17-08-2026 06:15 7,7 95,7 0 0 177 0,6 985,1
25 Casablanca 17-08-2026 06:00 7,7 95,2 0 0 215 0,6 985,2
24 Casablanca 17-08-2026 05:45 7,6 95,2 0 0 257 0,6 985,3
23 Casablanca 17-08-2026 05:30 7,5 95,2 0 0 279 0,6 984,8
22 Casablanca 17-08-2026 05:15 7,5 94,4 0 0 279 0,6 984,9
21 Casablanca 17-08-2026 05:00 7,5 94,2 0 0 281 0,6 984,9
20 Casablanca 17-08-2026 04:45 7,5 94,2 0 0 279 0,6 984,5
19 Casablanca 17-08-2026 04:30 7,5 94,7 0 0 291 0,6 984,6
18 Casablanca 17-08-2026 04:15 7,6 94,7 0 0 260 0,6 984,7
17 Casablanca 17-08-2026 04:00 7,7 96 0 0 256 0,6 984,9
16 Casablanca 17-08-2026 03:45 7,6 96,1 0 0 244 0,6 984,8
15 Casablanca 17-08-2026 03:30 7,8 95,5 0 0 265 0,6 984,5
14 Casablanca 17-08-2026 03:15 7,9 95 0 0 285 0,6 984,7
13 Casablanca 17-08-2026 03:00 7,8 96,3 0 0 272 0,6 984,9
12 Casablanca 17-08-2026 02:45 7,8 95,7 0 0 263 0,6 984,7
11 Casablanca 17-08-2026 02:30 8 94,5 0 0 234 0,6 984,6
10 Casablanca 17-08-2026 02:15 7,9 95,1 0 0 258 0,6 984,6
9 Casablanca 17-08-2026 02:00 7,8 94,9 0 0 265 0,6 984,7
8 Casablanca 17-08-2026 01:45 7,9 94,4 0 0 274 0,6 984,3
7 Casablanca 17-08-2026 01:30 7,8 95,3 0 0 268 0,6 984,6
6 Casablanca 17-08-2026 01:15 7,8 95,5 0 0 265 0,6 984,4
5 Casablanca 17-08-2026 01:00 7,7 96,4 0 0 261 0,6 984,2
4 Casablanca 17-08-2026 00:45 7,7 96,8 0 0 239 0,6 984,2
3 Casablanca 17-08-2026 00:30 7,8 96,4 0 0 268 0,6 984,6
2 Casablanca 17-08-2026 00:15 7,9 96,7 0 0 240 0,6 984,4
1 Casablanca 17-08-2026 00:00 8 96,6 0 0 236 0,6 984,6